Pacaya — V2CH3 — position and weather

sailwx.info

Track history (hours):
 
Tides and Currents Weather Stations Pressure Air Temp Water Temp Dewpoint Dewpoint Depression Visibility Wind Speed Wind Dir Waves Ship Positions

Pacaya

Last reported at 2018-Aug-14 01:36 UTC. Time now 2018-Aug-17 11:42 UTC.
Position N 35°44' W 000°37'.

Length 148 m; draft 8.5 m.

Type: Ship (hazmat cat B). MMSI: 304220000.

Date/timePositionNaut miles runAvg speedWind from/ knotsBaromVisibWave heightAir tempDewpointWater temp
2018-Aug-14 01:36N 35°44' W 000°37'0 0.0
2018-Aug-14 01:12N 35°44' W 000°37'0 0.0
2018-Aug-13 19:18N 35°44' W 000°37'0 0.0
2018-Aug-13 18:48N 35°44' W 000°37'0 0.0
2018-Aug-13 18:24N 35°44' W 000°37'  
2018-Aug-09 03:21N 35°44' W 000°37'0 0.0
2018-Aug-08 20:33N 35°44' W 000°37'19 1.3
2018-Aug-08 05:35N 36°02' W 000°29'50 7.7
2018-Aug-07 23:04N 36°49' W 000°05'1 7.8
2018-Aug-07 22:56N 36°49' W 000°05'3 7.7
2018-Aug-07 22:30N 36°53' W 000°03'7 7.9
2018-Aug-07 21:34N 36°60' W 000°00'1 7.9
2018-Aug-07 21:29N 37°00' E 000°00'4 8.0
2018-Aug-07 21:00N 37°04' E 000°02'4 8.1
2018-Aug-07 20:28N 37°08' E 000°04'5 8.2
2018-Aug-07 19:50N 37°12' E 000°07'3 8.3
2018-Aug-07 19:30N 37°15' E 000°08'4 8.4
2018-Aug-07 19:00N 37°19' E 000°10'4 8.4
2018-Aug-07 18:30N 37°23' E 000°12'4 8.3
2018-Aug-07 18:00N 37°27' E 000°14'13 8.2
2018-Aug-07 16:24N 37°39' E 000°20'22610.9
2018-Aug-06 19:37N 41°09' E 002°09'112.2
2018-Aug-06 19:30N 41°10' E 002°09'612.1
2018-Aug-06 19:00N 41°16' E 002°11'2 4.7
2018-Aug-06 18:30N 41°18' E 002°09'0 0.3
2018-Aug-06 17:55N 41°18' E 002°09'0 0.0
2018-Aug-06 17:31N 41°18' E 002°09'0 0.0
2018-Aug-06 17:00N 41°18' E 002°09'0 0.0
2018-Aug-06 16:30N 41°18' E 002°09'0 0.0
2018-Aug-06 16:00N 41°18' E 002°09'0 0.0
2018-Aug-06 15:30N 41°18' E 002°09'0 0.0
2018-Aug-06 15:00N 41°18' E 002°09'0 0.0
2018-Aug-06 14:30N 41°18' E 002°09'0 0.0
2018-Aug-06 14:00N 41°18' E 002°09'0 0.0
2018-Aug-06 13:30N 41°18' E 002°09'0 0.0
2018-Aug-06 13:00N 41°18' E 002°09'0 0.0
2018-Aug-06 12:21N 41°18' E 002°09'0 0.0
2018-Aug-06 11:58N 41°18' E 002°09'0 0.0
2018-Aug-06 11:28N 41°18' E 002°09'0 0.0
2018-Aug-06 10:58N 41°18' E 002°09'0 0.0
2018-Aug-06 10:28N 41°18' E 002°09'0 0.0
2018-Aug-06 09:58N 41°18' E 002°09'0 0.0
2018-Aug-06 09:28N 41°18' E 002°09'0 0.0
2018-Aug-06 09:00N 41°18' E 002°09'0 0.0
2018-Aug-06 08:30N 41°18' E 002°09'0 0.0
2018-Aug-06 08:00N 41°18' E 002°09'0 0.0
2018-Aug-06 07:30N 41°18' E 002°09'0 0.0
2018-Aug-06 07:00N 41°18' E 002°09'0 0.0
2018-Aug-06 06:30N 41°18' E 002°09'0 0.0
2018-Aug-06 06:00N 41°18' E 002°09'0 0.0
2018-Aug-06 05:30N 41°18' E 002°09'0 0.0
2018-Aug-06 04:59N 41°18' E 002°09'0 0.0
2018-Aug-06 04:26N 41°18' E 002°09'0 0.0
2018-Aug-06 03:59N 41°18' E 002°09'0 0.0
2018-Aug-06 03:29N 41°18' E 002°09'0 0.0
2018-Aug-06 02:59N 41°18' E 002°09'0 0.0
2018-Aug-06 02:29N 41°18' E 002°09'0 0.0
2018-Aug-06 01:59N 41°18' E 002°09'0 0.0
2018-Aug-06 01:29N 41°18' E 002°09'0 0.0
2018-Aug-06 00:59N 41°18' E 002°09'0 0.0
2018-Aug-06 00:29N 41°18' E 002°09'0 0.1
2018-Aug-05 23:59N 41°18' E 002°09'2 4.0
2018-Aug-05 23:30N 41°19' E 002°11'0 0.2
2018-Aug-05 23:00N 41°19' E 002°11'0 0.0
2018-Aug-05 22:28N 41°19' E 002°11'0 0.0
2018-Aug-05 21:54N 41°19' E 002°11'0 0.0
2018-Aug-05 21:30N 41°19' E 002°11'0 0.0
2018-Aug-05 20:59N 41°19' E 002°11'0 0.0
2018-Aug-05 20:26N 41°19' E 002°11'0 0.0
2018-Aug-05 19:59N 41°19' E 002°11'0 0.0
2018-Aug-05 19:29N 41°19' E 002°11'0 0.0
2018-Aug-05 18:57N 41°19' E 002°11'0 0.0
2018-Aug-05 18:30N 41°19' E 002°11'0 0.1
2018-Aug-05 17:52N 41°19' E 002°11'0 0.1
2018-Aug-05 17:28N 41°19' E 002°11'0 0.1
2018-Aug-05 16:58N 41°19' E 002°11'0 0.0
2018-Aug-05 16:28N 41°19' E 002°11'0 0.0
2018-Aug-05 15:58N 41°20' E 002°11'0 0.0
2018-Aug-05 15:28N 41°20' E 002°11'0 0.0
2018-Aug-05 14:49N 41°20' E 002°11'0 0.0
2018-Aug-05 14:28N 41°20' E 002°11'0 0.0
2018-Aug-05 13:28N 41°20' E 002°11'0 0.0
2018-Aug-05 12:58N 41°20' E 002°11'0 0.0
2018-Aug-05 12:28N 41°20' E 002°11'0 0.1
2018-Aug-05 11:58N 41°20' E 002°11'0 0.0
2018-Aug-05 11:28N 41°20' E 002°11'0 0.0
2018-Aug-05 10:58N 41°20' E 002°11'0 0.0
2018-Aug-05 10:28N 41°20' E 002°11'0 0.0
2018-Aug-05 10:00N 41°20' E 002°11'0 0.0
2018-Aug-05 09:30N 41°20' E 002°11'0 0.0
2018-Aug-05 09:00N 41°20' E 002°11'0 0.0
2018-Aug-05 08:30N 41°19' E 002°11'0 0.1
2018-Aug-05 08:00N 41°19' E 002°11'0 0.1
2018-Aug-05 07:30N 41°19' E 002°11'0 0.1
2018-Aug-05 07:00N 41°19' E 002°11'3 6.2
2018-Aug-05 06:30N 41°19' E 002°15'5 9.9
2018-Aug-05 06:01N 41°20' E 002°21'510.1
2018-Aug-05 05:30N 41°23' E 002°27'16010.6
2018-Aug-04 14:23N 43°10' E 005°06'  
Track history (hours):
 
Tides and Currents Weather Stations Pressure Air Temp Water Temp Dewpoint Dewpoint Depression Visibility Wind Speed Wind Dir Waves Ship Positions

Pacaya

Last reported at 2018-Aug-14 01:36 UTC. Time now 2018-Aug-17 11:42 UTC.
Position N 35°44' W 000°37'.

Length 148 m; draft 8.5 m.

Type: Ship (hazmat cat B). MMSI: 304220000.

Date/timePositionNaut miles runAvg speedWind from/ knotsBaromVisibWave heightAir tempDewpointWater temp
2018-Aug-14 01:36N 35°44' W 000°37'0 0.0
2018-Aug-14 01:12N 35°44' W 000°37'0 0.0
2018-Aug-13 19:18N 35°44' W 000°37'0 0.0
2018-Aug-13 18:48N 35°44' W 000°37'0 0.0
2018-Aug-13 18:24N 35°44' W 000°37'  
2018-Aug-09 03:21N 35°44' W 000°37'0 0.0
2018-Aug-08 20:33N 35°44' W 000°37'19 1.3
2018-Aug-08 05:35N 36°02' W 000°29'50 7.7
2018-Aug-07 23:04N 36°49' W 000°05'1 7.8
2018-Aug-07 22:56N 36°49' W 000°05'3 7.7
2018-Aug-07 22:30N 36°53' W 000°03'7 7.9
2018-Aug-07 21:34N 36°60' W 000°00'1 7.9
2018-Aug-07 21:29N 37°00' E 000°00'4 8.0
2018-Aug-07 21:00N 37°04' E 000°02'4 8.1
2018-Aug-07 20:28N 37°08' E 000°04'5 8.2
2018-Aug-07 19:50N 37°12' E 000°07'3 8.3
2018-Aug-07 19:30N 37°15' E 000°08'4 8.4
2018-Aug-07 19:00N 37°19' E 000°10'4 8.4
2018-Aug-07 18:30N 37°23' E 000°12'4 8.3
2018-Aug-07 18:00N 37°27' E 000°14'13 8.2
2018-Aug-07 16:24N 37°39' E 000°20'22610.9
2018-Aug-06 19:37N 41°09' E 002°09'112.2
2018-Aug-06 19:30N 41°10' E 002°09'612.1
2018-Aug-06 19:00N 41°16' E 002°11'2 4.7
2018-Aug-06 18:30N 41°18' E 002°09'0 0.3
2018-Aug-06 17:55N 41°18' E 002°09'0 0.0
2018-Aug-06 17:31N 41°18' E 002°09'0 0.0
2018-Aug-06 17:00N 41°18' E 002°09'0 0.0
2018-Aug-06 16:30N 41°18' E 002°09'0 0.0
2018-Aug-06 16:00N 41°18' E 002°09'0 0.0
2018-Aug-06 15:30N 41°18' E 002°09'0 0.0
2018-Aug-06 15:00N 41°18' E 002°09'0 0.0
2018-Aug-06 14:30N 41°18' E 002°09'0 0.0
2018-Aug-06 14:00N 41°18' E 002°09'0 0.0
2018-Aug-06 13:30N 41°18' E 002°09'0 0.0
2018-Aug-06 13:00N 41°18' E 002°09'0 0.0
2018-Aug-06 12:21N 41°18' E 002°09'0 0.0
2018-Aug-06 11:58N 41°18' E 002°09'0 0.0
2018-Aug-06 11:28N 41°18' E 002°09'0 0.0
2018-Aug-06 10:58N 41°18' E 002°09'0 0.0
2018-Aug-06 10:28N 41°18' E 002°09'0 0.0
2018-Aug-06 09:58N 41°18' E 002°09'0 0.0
2018-Aug-06 09:28N 41°18' E 002°09'0 0.0
2018-Aug-06 09:00N 41°18' E 002°09'0 0.0
2018-Aug-06 08:30N 41°18' E 002°09'0 0.0
2018-Aug-06 08:00N 41°18' E 002°09'0 0.0
2018-Aug-06 07:30N 41°18' E 002°09'0 0.0
2018-Aug-06 07:00N 41°18' E 002°09'0 0.0
2018-Aug-06 06:30N 41°18' E 002°09'0 0.0
2018-Aug-06 06:00N 41°18' E 002°09'0 0.0
2018-Aug-06 05:30N 41°18' E 002°09'0 0.0
2018-Aug-06 04:59N 41°18' E 002°09'0 0.0
2018-Aug-06 04:26N 41°18' E 002°09'0 0.0
2018-Aug-06 03:59N 41°18' E 002°09'0 0.0
2018-Aug-06 03:29N 41°18' E 002°09'0 0.0
2018-Aug-06 02:59N 41°18' E 002°09'0 0.0
2018-Aug-06 02:29N 41°18' E 002°09'0 0.0
2018-Aug-06 01:59N 41°18' E 002°09'0 0.0
2018-Aug-06 01:29N 41°18' E 002°09'0 0.0
2018-Aug-06 00:59N 41°18' E 002°09'0 0.0
2018-Aug-06 00:29N 41°18' E 002°09'0 0.1
2018-Aug-05 23:59N 41°18' E 002°09'2 4.0
2018-Aug-05 23:30N 41°19' E 002°11'0 0.2
2018-Aug-05 23:00N 41°19' E 002°11'0 0.0
2018-Aug-05 22:28N 41°19' E 002°11'0 0.0
2018-Aug-05 21:54N 41°19' E 002°11'0 0.0
2018-Aug-05 21:30N 41°19' E 002°11'0 0.0
2018-Aug-05 20:59N 41°19' E 002°11'0 0.0
2018-Aug-05 20:26N 41°19' E 002°11'0 0.0
2018-Aug-05 19:59N 41°19' E 002°11'0 0.0
2018-Aug-05 19:29N 41°19' E 002°11'0 0.0
2018-Aug-05 18:57N 41°19' E 002°11'0 0.0
2018-Aug-05 18:30N 41°19' E 002°11'0 0.1
2018-Aug-05 17:52N 41°19' E 002°11'0 0.1
2018-Aug-05 17:28N 41°19' E 002°11'0 0.1
2018-Aug-05 16:58N 41°19' E 002°11'0 0.0
2018-Aug-05 16:28N 41°19' E 002°11'0 0.0
2018-Aug-05 15:58N 41°20' E 002°11'0 0.0
2018-Aug-05 15:28N 41°20' E 002°11'0 0.0
2018-Aug-05 14:49N 41°20' E 002°11'0 0.0
2018-Aug-05 14:28N 41°20' E 002°11'0 0.0
2018-Aug-05 13:28N 41°20' E 002°11'0 0.0
2018-Aug-05 12:58N 41°20' E 002°11'0 0.0
2018-Aug-05 12:28N 41°20' E 002°11'0 0.1
2018-Aug-05 11:58N 41°20' E 002°11'0 0.0
2018-Aug-05 11:28N 41°20' E 002°11'0 0.0
2018-Aug-05 10:58N 41°20' E 002°11'0 0.0
2018-Aug-05 10:28N 41°20' E 002°11'0 0.0
2018-Aug-05 10:00N 41°20' E 002°11'0 0.0
2018-Aug-05 09:30N 41°20' E 002°11'0 0.0
2018-Aug-05 09:00N 41°20' E 002°11'0 0.0
2018-Aug-05 08:30N 41°19' E 002°11'0 0.1
2018-Aug-05 08:00N 41°19' E 002°11'0 0.1
2018-Aug-05 07:30N 41°19' E 002°11'0 0.1
2018-Aug-05 07:00N 41°19' E 002°11'3 6.2
2018-Aug-05 06:30N 41°19' E 002°15'5 9.9
2018-Aug-05 06:01N 41°20' E 002°21'510.1
2018-Aug-05 05:30N 41°23' E 002°27'16010.6
2018-Aug-04 14:23N 43°10' E 005°06'  

Dump ship's entire track history